createdAt,value
2022-09-18T00:01:17.619Z,5.00
2022-09-18T00:03:44.504Z,8.82
2022-09-18T00:06:14.085Z,5.00
2022-09-18T00:08:43.670Z,6.15
2022-09-18T00:11:12.987Z,5.35
2022-09-18T00:13:40.676Z,8.35
2022-09-18T00:16:09.503Z,7.43
2022-09-18T00:18:36.231Z,4.07
2022-09-18T00:21:08.396Z,7.43
2022-09-18T00:23:35.487Z,6.75
2022-09-18T00:26:02.727Z,6.03
2022-09-18T00:28:29.345Z,4.93
2022-09-18T00:30:55.955Z,7.05
2022-09-18T00:33:22.683Z,9.30
2022-09-18T00:35:49.172Z,9.60
2022-09-18T00:38:15.744Z,7.75
2022-09-18T00:40:42.506Z,9.60
2022-09-18T00:43:20.844Z,11.40
2022-09-18T00:46:09.573Z,10.10
2022-09-18T00:49:08.831Z,7.25
2022-09-18T00:51:36.882Z,5.18
2022-09-18T00:54:27.880Z,5.22
2022-09-18T00:56:59.866Z,6.35
2022-09-18T00:59:32.497Z,10.60
2022-09-18T01:02:00.340Z,10.20
2022-09-18T01:04:28.596Z,9.52
2022-09-18T01:07:17.126Z,8.38
2022-09-18T01:09:59.443Z,5.68
2022-09-18T01:12:38.075Z,8.15
2022-09-18T01:15:41.513Z,9.63
2022-09-18T01:18:18.127Z,8.73
2022-09-18T01:20:53.833Z,8.65
2022-09-18T01:23:59.201Z,8.43
2022-09-18T01:26:26.260Z,7.43
2022-09-18T01:29:18.804Z,5.85
2022-09-18T01:31:52.671Z,11.77
2022-09-18T01:34:56.474Z,10.30
2022-09-18T01:37:25.907Z,7.43
2022-09-18T01:40:25.914Z,7.18
2022-09-18T01:42:56.453Z,5.47
2022-09-18T01:45:30.780Z,8.43
2022-09-18T01:48:01.281Z,7.53
2022-09-18T01:50:31.027Z,11.55
2022-09-18T01:53:21.433Z,8.38
2022-09-18T01:55:55.399Z,9.10
2022-09-18T01:58:26.231Z,9.93
2022-09-18T02:01:00.072Z,8.15
2022-09-18T02:03:31.023Z,7.97
2022-09-18T02:06:11.158Z,10.05
2022-09-18T02:08:51.050Z,14.73
2022-09-18T02:11:19.159Z,6.63
2022-09-18T02:13:56.360Z,5.72
2022-09-18T02:16:44.655Z,5.43
2022-09-18T02:19:18.511Z,11.23
2022-09-18T02:21:47.449Z,10.93
2022-09-18T02:24:18.900Z,9.95
2022-09-18T02:26:48.405Z,3.35
2022-09-18T02:29:17.871Z,10.73
2022-09-18T02:31:44.984Z,9.70
2022-09-18T02:34:13.143Z,9.30
2022-09-18T02:36:58.603Z,9.27
2022-09-18T02:39:39.734Z,8.98
2022-09-18T02:42:30.950Z,9.07
2022-09-18T02:45:30.804Z,6.10
2022-09-18T02:48:41.697Z,12.30
2022-09-18T02:51:08.170Z,7.80
2022-09-18T02:53:50.885Z,13.85
2022-09-18T02:56:26.223Z,11.07
2022-09-18T02:58:57.754Z,11.95
2022-09-18T03:01:26.814Z,12.93
2022-09-18T03:03:53.870Z,9.23
2022-09-18T03:06:20.390Z,13.98
2022-09-18T03:08:46.947Z,8.88
2022-09-18T03:11:13.494Z,10.00
2022-09-18T03:13:40.077Z,10.13
2022-09-18T03:16:06.597Z,11.65
2022-09-18T03:18:33.122Z,11.35
2022-09-18T03:20:59.658Z,7.93
2022-09-18T03:23:26.193Z,12.75
2022-09-18T03:25:52.821Z,19.50
2022-09-18T03:28:19.423Z,19.42
2022-09-18T03:30:46.263Z,17.50
2022-09-18T03:33:13.131Z,14.52
2022-09-18T03:35:39.684Z,12.65
2022-09-18T03:38:06.175Z,14.55
2022-09-18T03:40:33.272Z,10.52
2022-09-18T03:42:59.848Z,12.02
2022-09-18T03:45:26.421Z,9.80
2022-09-18T03:47:53.044Z,10.77
2022-09-18T03:50:19.539Z,14.95
2022-09-18T03:52:50.929Z,14.30
2022-09-18T03:55:17.927Z,13.32
2022-09-18T03:57:46.885Z,14.30
2022-09-18T04:00:14.664Z,9.77
2022-09-18T04:02:41.826Z,13.63
2022-09-18T04:05:08.978Z,11.68
2022-09-18T04:07:35.599Z,16.35
2022-09-18T04:10:02.366Z,10.25
2022-09-18T04:12:29.002Z,17.75
2022-09-18T04:14:55.604Z,19.63
2022-09-18T04:17:22.352Z,10.82
2022-09-18T04:19:53.283Z,10.20
2022-09-18T04:22:20.389Z,12.52
2022-09-18T04:24:47.502Z,12.23
2022-09-18T04:27:15.078Z,9.75
2022-09-18T04:29:41.825Z,11.77
2022-09-18T04:32:08.423Z,11.80
2022-09-18T04:34:35.101Z,11.57
2022-09-18T04:37:01.589Z,11.63
2022-09-18T04:39:28.643Z,11.80
2022-09-18T04:41:56.035Z,12.30
2022-09-18T04:44:22.581Z,11.27
2022-09-18T04:46:49.705Z,13.50
2022-09-18T04:49:16.374Z,7.63
2022-09-18T04:51:43.018Z,11.32
2022-09-18T04:54:09.983Z,7.85
2022-09-18T04:56:36.745Z,11.40
2022-09-18T04:59:03.872Z,8.15
2022-09-18T05:01:31.000Z,7.85
2022-09-18T05:03:57.719Z,8.80
2022-09-18T05:06:24.616Z,5.93
2022-09-18T05:08:51.280Z,9.63
2022-09-18T05:11:17.813Z,6.18
2022-09-18T05:13:44.553Z,9.93
2022-09-18T05:16:11.189Z,10.23
2022-09-18T05:18:37.750Z,11.10
2022-09-18T05:21:05.997Z,8.80
2022-09-18T05:23:34.497Z,12.95
2022-09-18T05:26:02.189Z,9.88
2022-09-18T05:28:28.748Z,8.88
2022-09-18T05:31:01.878Z,7.82
2022-09-18T05:33:28.654Z,8.23
2022-09-18T05:35:56.792Z,7.28
2022-09-18T05:38:24.614Z,7.43
2022-09-18T05:40:51.229Z,11.80
2022-09-18T05:43:18.179Z,12.02
2022-09-18T05:45:44.900Z,11.93
2022-09-18T05:48:14.301Z,6.20
2022-09-18T05:50:42.255Z,10.48
2022-09-18T05:53:12.372Z,10.02
2022-09-18T05:55:39.945Z,8.27
2022-09-18T05:58:08.081Z,9.32
2022-09-18T06:00:35.393Z,10.35
2022-09-18T06:03:07.133Z,6.43
2022-09-18T06:05:35.772Z,6.53
2022-09-18T06:08:02.772Z,10.70
2022-09-18T06:10:30.231Z,8.10
2022-09-18T06:13:17.252Z,6.65
2022-09-18T06:15:46.053Z,12.30
2022-09-18T06:18:14.575Z,9.55
2022-09-18T06:20:52.481Z,7.97
2022-09-18T06:23:19.026Z,6.07
2022-09-18T06:25:45.556Z,8.27
2022-09-18T06:28:12.044Z,9.70
2022-09-18T06:30:38.631Z,7.55
2022-09-18T06:33:07.017Z,7.43
2022-09-18T06:35:34.506Z,6.90
2022-09-18T06:38:04.916Z,5.10
2022-09-18T06:40:32.513Z,7.05
2022-09-18T06:43:01.795Z,8.23
2022-09-18T06:45:29.618Z,4.95
2022-09-18T06:48:00.827Z,10.23
2022-09-18T06:50:27.401Z,8.70
2022-09-18T06:52:54.034Z,6.10
2022-09-18T06:55:20.536Z,4.93
2022-09-18T06:57:57.573Z,9.98
2022-09-18T07:00:24.457Z,7.55
2022-09-18T07:02:58.347Z,5.30
2022-09-18T07:05:30.742Z,8.27
2022-09-18T07:07:57.750Z,6.70
2022-09-18T07:10:24.874Z,6.45
2022-09-18T07:12:59.255Z,5.47
2022-09-18T07:15:26.629Z,6.25
2022-09-18T07:18:01.072Z,7.20
2022-09-18T07:20:28.224Z,12.73
2022-09-18T07:22:59.622Z,6.45
2022-09-18T07:25:27.984Z,6.38
2022-09-18T07:27:54.853Z,7.35
2022-09-18T07:30:21.685Z,7.95
2022-09-18T07:32:48.989Z,10.52
2022-09-18T07:35:15.533Z,8.95
2022-09-18T07:37:42.036Z,9.43
2022-09-18T07:40:09.731Z,6.97
2022-09-18T07:42:36.575Z,14.13
2022-09-18T07:45:03.737Z,9.20
2022-09-18T07:47:30.271Z,7.32
2022-09-18T07:49:56.917Z,9.93
2022-09-18T07:52:23.517Z,10.00
2022-09-18T07:54:50.984Z,7.40
2022-09-18T07:57:17.747Z,12.38
2022-09-18T07:59:44.252Z,7.63
2022-09-18T08:02:11.635Z,7.88
2022-09-18T08:04:38.176Z,10.18
2022-09-18T08:07:05.042Z,8.35
2022-09-18T08:09:31.675Z,9.70
2022-09-18T08:11:58.465Z,10.20
2022-09-18T08:14:28.759Z,11.45
2022-09-18T08:16:56.149Z,10.70
2022-09-18T08:19:22.716Z,8.65
2022-09-18T08:21:49.358Z,7.30
2022-09-18T08:24:17.455Z,7.35
2022-09-18T08:26:44.594Z,6.60
2022-09-18T08:29:18.760Z,6.18
2022-09-18T08:31:47.142Z,6.65
2022-09-18T08:34:13.897Z,5.50
2022-09-18T08:36:40.639Z,8.40
2022-09-18T08:39:07.365Z,9.05
2022-09-18T08:41:43.037Z,6.35
2022-09-18T08:44:18.213Z,6.93
2022-09-18T08:47:26.766Z,6.55
2022-09-18T08:49:55.346Z,7.20
2022-09-18T08:52:24.592Z,3.58
2022-09-18T08:55:09.400Z,6.47
2022-09-18T08:57:42.000Z,6.22
2022-09-18T09:00:19.548Z,7.60
2022-09-18T09:02:49.276Z,9.45
2022-09-18T09:05:31.111Z,4.63
2022-09-18T09:08:12.218Z,4.60
2022-09-18T09:10:55.515Z,4.22
2022-09-18T09:13:47.125Z,9.30
2022-09-18T09:16:17.095Z,6.45
2022-09-18T09:19:00.405Z,5.95
2022-09-18T09:21:42.103Z,10.32
2022-09-18T09:24:44.391Z,4.90
2022-09-18T09:27:21.226Z,7.25
2022-09-18T09:29:50.998Z,6.28
2022-09-18T09:32:35.171Z,6.20
2022-09-18T09:35:18.059Z,5.43
2022-09-18T09:37:47.073Z,8.13
2022-09-18T09:40:21.370Z,7.20
2022-09-18T09:43:22.948Z,8.95
2022-09-18T09:45:53.190Z,6.60
2022-09-18T09:48:29.077Z,10.25
2022-09-18T09:51:03.898Z,7.78
2022-09-18T09:53:30.900Z,4.88
2022-09-18T09:56:28.768Z,8.95
2022-09-18T09:58:59.414Z,10.30
2022-09-18T10:01:31.914Z,9.68
2022-09-18T10:04:12.759Z,7.00
2022-09-18T10:06:53.572Z,10.20
2022-09-18T10:09:25.007Z,11.27
2022-09-18T10:12:01.976Z,8.60
2022-09-18T10:14:33.396Z,14.88
2022-09-18T10:17:03.078Z,8.20
2022-09-18T10:19:36.490Z,10.77
2022-09-18T10:22:06.374Z,7.10
2022-09-18T10:24:58.861Z,9.15
2022-09-18T10:27:25.428Z,10.88
2022-09-18T10:29:55.203Z,7.13
2022-09-18T10:32:41.627Z,6.88
2022-09-18T10:35:30.161Z,9.63
2022-09-18T10:37:58.263Z,8.40
2022-09-18T10:40:32.812Z,11.35
2022-09-18T10:43:00.756Z,13.57
2022-09-18T10:45:29.867Z,10.55
2022-09-18T10:48:06.916Z,12.02
2022-09-18T10:50:34.512Z,12.82
2022-09-18T10:53:30.229Z,13.35
2022-09-18T10:56:04.930Z,11.55
2022-09-18T10:58:33.822Z,9.57
2022-09-18T11:01:03.852Z,8.35
2022-09-18T11:03:42.370Z,10.40
2022-09-18T11:06:15.604Z,7.72
2022-09-18T11:08:46.636Z,5.00
2022-09-18T11:11:30.111Z,7.03
2022-09-18T11:14:04.398Z,7.53
2022-09-18T11:16:43.939Z,7.28
2022-09-18T11:19:11.103Z,5.22
2022-09-18T11:21:45.146Z,6.57
2022-09-18T11:24:27.687Z,7.53
2022-09-18T11:26:57.157Z,5.88
2022-09-18T11:29:36.997Z,3.85
2022-09-18T11:32:17.642Z,6.95
2022-09-18T11:34:49.787Z,5.82
2022-09-18T11:37:31.731Z,8.77
2022-09-18T11:40:06.259Z,10.48
2022-09-18T11:42:33.107Z,4.60
2022-09-18T11:45:25.672Z,6.95
2022-09-18T11:48:05.784Z,7.88
2022-09-18T11:50:35.286Z,7.20
2022-09-18T11:53:19.482Z,3.92
2022-09-18T11:55:57.947Z,5.22
2022-09-18T11:58:37.047Z,5.55
2022-09-18T12:01:06.732Z,3.72
2022-09-18T12:03:56.870Z,9.02
2022-09-18T12:06:42.580Z,5.57
2022-09-18T12:09:36.442Z,3.10
2022-09-18T12:12:11.495Z,5.07
2022-09-18T12:14:46.935Z,3.83
2022-09-18T12:17:27.849Z,5.72
2022-09-18T12:19:59.985Z,3.70
2022-09-18T12:22:44.907Z,7.05
2022-09-18T12:25:14.640Z,5.20
2022-09-18T12:27:44.844Z,6.13
2022-09-18T12:30:15.186Z,3.75
2022-09-18T12:32:56.207Z,4.20
2022-09-18T12:35:44.283Z,8.98
2022-09-18T12:38:22.921Z,5.47
2022-09-18T12:41:08.239Z,8.10
2022-09-18T12:43:44.196Z,6.82
2022-09-18T12:46:17.658Z,4.93
2022-09-18T12:52:02.225Z,5.03
2022-09-18T12:54:47.568Z,4.60
2022-09-18T12:57:29.235Z,6.05
2022-09-18T12:59:59.007Z,9.45
2022-09-18T13:02:37.882Z,6.53
2022-09-18T13:05:13.046Z,7.45
2022-09-18T13:07:53.879Z,6.75
2022-09-18T13:10:27.373Z,10.45
2022-09-18T13:15:38.371Z,6.15
2022-09-18T13:18:18.334Z,7.90
2022-09-18T13:20:46.659Z,6.70
2022-09-18T13:23:22.583Z,8.27
2022-09-18T13:25:51.735Z,9.95
2022-09-18T13:28:21.285Z,5.47
2022-09-18T13:31:12.908Z,7.15
2022-09-18T13:33:39.635Z,5.18
2022-09-18T13:36:06.388Z,5.88
2022-09-18T13:38:33.853Z,4.43
2022-09-18T13:41:03.269Z,3.25
2022-09-18T13:43:34.149Z,2.50
2022-09-18T13:46:06.586Z,6.30
2022-09-18T13:48:46.587Z,2.55
2022-09-18T13:51:23.987Z,4.53
2022-09-18T13:54:12.488Z,4.75
2022-09-18T13:57:03.801Z,6.07
2022-09-18T13:59:55.703Z,1.75
2022-09-18T14:02:23.850Z,4.03
2022-09-18T14:05:01.313Z,5.00
2022-09-18T14:07:27.779Z,6.43
2022-09-18T14:10:04.640Z,3.75
2022-09-18T14:12:35.589Z,4.85
2022-09-18T14:15:22.927Z,5.78
2022-09-18T14:18:14.599Z,5.00
2022-09-18T14:20:47.407Z,3.33
2022-09-18T14:23:35.926Z,4.38
2022-09-18T14:26:29.532Z,5.03
2022-09-18T14:29:00.323Z,7.00
2022-09-18T14:31:32.030Z,6.68
2022-09-18T14:34:06.459Z,5.65
2022-09-18T14:36:58.610Z,5.65
2022-09-18T14:39:45.612Z,6.32
2022-09-18T14:42:21.433Z,5.43
2022-09-18T14:44:54.861Z,9.73
2022-09-18T14:49:49.741Z,6.53
2022-09-18T14:52:28.054Z,5.75
2022-09-18T14:54:57.433Z,6.10
2022-09-18T14:57:27.956Z,8.80
2022-09-18T14:59:56.734Z,6.82
2022-09-18T15:02:33.984Z,6.38
2022-09-18T15:05:03.471Z,7.50
2022-09-18T15:07:30.594Z,3.72
2022-09-18T15:10:01.423Z,3.17
2022-09-18T15:12:30.626Z,4.20
2022-09-18T15:14:58.867Z,5.47
2022-09-18T15:17:27.908Z,7.78
2022-09-18T15:19:59.267Z,9.43
2022-09-18T15:22:27.218Z,7.00
2022-09-18T15:24:54.611Z,7.60
2022-09-18T15:27:22.888Z,5.50
2022-09-18T15:29:58.504Z,6.80
2022-09-18T15:32:30.704Z,6.55
2022-09-18T15:34:58.501Z,7.68
2022-09-18T15:37:27.952Z,10.95
2022-09-18T15:40:09.413Z,8.27
2022-09-18T15:42:50.746Z,7.72
2022-09-18T15:45:21.751Z,10.95
2022-09-18T15:47:49.161Z,9.05
2022-09-18T15:50:15.812Z,4.88
2022-09-18T15:52:49.200Z,6.10
2022-09-18T15:55:18.902Z,8.95
2022-09-18T15:57:54.306Z,5.13
2022-09-18T16:00:24.495Z,7.20
2022-09-18T16:02:53.560Z,6.05
2022-09-18T16:05:21.970Z,4.03
2022-09-18T16:08:04.337Z,5.50
2022-09-18T16:10:33.934Z,5.68
2022-09-18T16:13:05.475Z,7.07
2022-09-18T16:15:34.192Z,5.47
2022-09-18T16:18:04.417Z,3.72
2022-09-18T16:20:32.944Z,7.25
2022-09-18T16:23:15.280Z,4.97
2022-09-18T16:25:43.838Z,7.68
2022-09-18T16:28:40.958Z,5.03
2022-09-18T16:31:07.778Z,5.97
2022-09-18T16:33:35.191Z,5.35
2022-09-18T16:36:07.783Z,4.72
2022-09-18T16:38:35.480Z,4.50
2022-09-18T16:41:02.261Z,6.43
2022-09-18T16:43:29.767Z,8.27
2022-09-18T16:45:56.313Z,5.05
2022-09-18T16:48:24.587Z,6.63
2022-09-18T16:50:51.123Z,4.93
2022-09-18T16:53:17.936Z,7.43
2022-09-18T16:55:49.670Z,10.73
2022-09-18T16:58:19.771Z,8.60
2022-09-18T17:00:46.619Z,7.55
2022-09-18T17:03:13.421Z,6.72
2022-09-18T17:05:40.140Z,10.07
2022-09-18T17:08:07.438Z,7.07
2022-09-18T17:10:35.153Z,7.75
2022-09-18T17:13:02.199Z,6.40
2022-09-18T17:15:29.330Z,7.72
2022-09-18T17:17:56.299Z,5.50
2022-09-18T17:20:23.127Z,6.47
2022-09-18T17:22:50.991Z,7.00
2022-09-18T17:25:17.585Z,4.95
2022-09-18T17:27:44.125Z,5.70
2022-09-18T17:30:11.680Z,7.97
2022-09-18T17:32:38.594Z,7.10
2022-09-18T17:35:05.541Z,7.18
2022-09-18T17:37:32.436Z,4.18
2022-09-18T17:40:00.429Z,5.38
2022-09-18T17:42:27.185Z,7.65
2022-09-18T17:44:53.711Z,6.13
2022-09-18T17:47:20.530Z,5.63
2022-09-18T17:49:47.172Z,5.90
2022-09-18T17:52:14.169Z,6.70
2022-09-18T17:54:41.094Z,4.70
2022-09-18T17:57:11.673Z,4.20
2022-09-18T17:59:40.289Z,7.97
2022-09-18T18:02:08.987Z,5.55
2022-09-18T18:04:36.046Z,6.50
2022-09-18T18:07:04.045Z,4.60
2022-09-18T18:09:31.091Z,6.15
2022-09-18T18:11:58.247Z,6.28
2022-09-18T18:14:25.378Z,6.05
2022-09-18T18:16:52.772Z,7.13
2022-09-18T18:19:19.540Z,10.18
2022-09-18T18:21:46.318Z,6.43
2022-09-18T18:24:16.490Z,7.25
2022-09-18T18:26:44.324Z,6.43
2022-09-18T18:29:14.117Z,5.75
2022-09-18T18:31:43.274Z,4.90
2022-09-18T18:34:11.836Z,8.23
2022-09-18T18:36:39.988Z,5.60
2022-09-18T18:39:12.046Z,6.25
2022-09-18T18:41:39.531Z,8.45
2022-09-18T18:44:07.180Z,3.60
2022-09-18T18:46:36.602Z,7.20
2022-09-18T18:49:09.064Z,4.47
2022-09-18T18:51:38.530Z,4.75
2022-09-18T18:54:06.219Z,4.30
2022-09-18T18:56:35.670Z,4.85
2022-09-18T18:59:03.708Z,4.25
2022-09-18T19:01:31.623Z,4.90
2022-09-18T19:04:01.369Z,6.70
2022-09-18T19:06:28.255Z,3.88
2022-09-18T19:09:00.576Z,5.22
2022-09-18T19:11:28.868Z,5.40
2022-09-18T19:13:57.039Z,7.70
2022-09-18T19:16:25.487Z,4.43
2022-09-18T19:18:58.785Z,4.50
2022-09-18T19:21:27.000Z,5.00
2022-09-18T19:23:57.683Z,6.70
2022-09-18T19:26:26.555Z,13.27
2022-09-18T19:28:56.521Z,10.82
2022-09-18T19:31:24.703Z,8.25
2022-09-18T19:33:52.697Z,8.82
2022-09-18T19:36:25.079Z,7.10
2022-09-18T19:38:56.140Z,7.03
2022-09-18T19:41:43.180Z,4.63
2022-09-18T19:44:36.470Z,11.32
2022-09-18T19:47:28.018Z,9.33
2022-09-18T19:49:57.030Z,5.32
2022-09-18T19:52:26.094Z,9.50
2022-09-18T19:54:54.673Z,7.05
2022-09-18T19:57:23.214Z,5.93
2022-09-18T19:59:55.868Z,9.32
2022-09-18T20:02:24.470Z,7.70
2022-09-18T20:04:51.104Z,5.97
2022-09-18T20:07:17.688Z,5.63
2022-09-18T20:09:44.160Z,10.70
2022-09-18T20:12:10.811Z,5.35
2022-09-18T20:14:37.375Z,12.93
2022-09-18T20:17:04.244Z,6.30
2022-09-18T20:19:31.058Z,8.48
2022-09-18T20:21:57.625Z,7.57
2022-09-18T20:24:24.136Z,8.13
2022-09-18T20:26:51.445Z,11.27
2022-09-18T20:29:18.093Z,12.07
2022-09-18T20:31:45.973Z,10.52
2022-09-18T20:34:13.871Z,18.35
2022-09-18T20:36:40.390Z,11.68
2022-09-18T20:39:07.021Z,10.65
2022-09-18T20:41:33.557Z,8.27
2022-09-18T20:44:01.201Z,9.82
2022-09-18T20:46:27.988Z,11.52
2022-09-18T20:48:57.459Z,13.20
2022-09-18T20:51:32.721Z,8.48
2022-09-18T20:53:59.299Z,12.48
2022-09-18T20:56:27.701Z,14.30
2022-09-18T20:58:54.629Z,13.52
2022-09-18T21:01:25.079Z,12.32
2022-09-18T21:03:57.451Z,10.13
2022-09-18T21:06:26.494Z,10.73
2022-09-18T21:08:54.966Z,8.77
2022-09-18T21:11:29.965Z,7.57
2022-09-18T21:14:01.334Z,10.07
2022-09-18T21:16:30.968Z,8.05
2022-09-18T21:19:00.433Z,11.63
2022-09-18T21:21:28.991Z,8.15
2022-09-18T21:24:01.485Z,11.48
2022-09-18T21:26:34.144Z,12.48
2022-09-18T21:29:11.244Z,15.63
2022-09-18T21:31:42.348Z,9.75
2022-09-18T21:34:11.502Z,11.68
2022-09-18T21:36:43.355Z,15.02
2022-09-18T21:39:11.980Z,14.35
2022-09-18T21:41:39.538Z,11.13
2022-09-18T21:44:13.214Z,9.50
2022-09-18T21:46:39.885Z,12.00
2022-09-18T21:49:07.746Z,10.63
2022-09-18T21:51:36.125Z,10.20
2022-09-18T21:54:05.487Z,11.98
2022-09-18T21:56:33.189Z,6.63
2022-09-18T21:59:00.395Z,10.25
2022-09-18T22:01:32.098Z,11.27
2022-09-18T22:04:02.306Z,14.35
2022-09-18T22:06:35.904Z,12.35
2022-09-18T22:11:33.110Z,12.90
2022-09-18T22:14:00.229Z,15.73
2022-09-18T22:16:29.479Z,11.95
2022-09-18T22:18:56.666Z,9.88
2022-09-18T22:21:32.267Z,15.85
2022-09-18T22:24:06.539Z,9.15
2022-09-18T22:26:41.962Z,9.15
2022-09-18T22:29:17.369Z,15.38
2022-09-18T22:31:46.487Z,8.75
2022-09-18T22:34:14.971Z,13.75
2022-09-18T22:36:41.672Z,15.02
2022-09-18T22:39:08.324Z,7.55
2022-09-18T22:41:38.758Z,13.30
2022-09-18T22:44:06.602Z,10.32
2022-09-18T22:46:35.921Z,9.57
2022-09-18T22:49:02.589Z,11.18
2022-09-18T22:51:29.911Z,13.02
2022-09-18T22:53:59.052Z,11.55
2022-09-18T22:56:27.659Z,12.93
2022-09-18T22:58:55.323Z,8.98
2022-09-18T23:01:31.239Z,10.85
2022-09-18T23:03:59.581Z,10.13
2022-09-18T23:06:27.076Z,7.97
2022-09-18T23:08:55.445Z,10.73
2022-09-18T23:11:25.057Z,13.90
2022-09-18T23:13:56.439Z,10.15
2022-09-18T23:16:25.488Z,13.15
2022-09-18T23:18:54.365Z,14.23
2022-09-18T23:21:22.701Z,14.50
2022-09-18T23:26:33.051Z,16.02
2022-09-18T23:29:01.161Z,10.77
2022-09-18T23:31:30.612Z,11.25
2022-09-18T23:34:00.287Z,14.55
2022-09-18T23:36:36.150Z,12.02
2022-09-18T23:39:06.390Z,13.95
2022-09-18T23:41:38.072Z,11.65
2022-09-18T23:44:06.851Z,17.30
2022-09-18T23:46:33.505Z,12.95
2022-09-18T23:49:00.306Z,12.35
2022-09-18T23:51:32.354Z,12.20
2022-09-18T23:54:01.936Z,12.27
2022-09-18T23:56:31.212Z,15.07
2022-09-18T23:59:00.118Z,15.27
